sensor_id;sensor_type;location;lat;lon;timestamp;P1;durP1;ratioP1;P2;durP2;ratioP2
15130;SDS011;7666;50.920;4.628;2022-12-20T00:00:32;3.33;;;1.87;;
15130;SDS011;7666;50.920;4.628;2022-12-20T00:03:18;3.57;;;1.83;;
15130;SDS011;7666;50.920;4.628;2022-12-20T00:06:07;2.37;;;1.60;;
15130;SDS011;7666;50.920;4.628;2022-12-20T00:08:54;4.73;;;2.10;;
15130;SDS011;7666;50.920;4.628;2022-12-20T00:11:42;5.33;;;1.87;;
15130;SDS011;7666;50.920;4.628;2022-12-20T00:14:28;5.50;;;2.17;;
15130;SDS011;7666;50.920;4.628;2022-12-20T00:17:14;3.33;;;2.00;;
15130;SDS011;7666;50.920;4.628;2022-12-20T00:20:00;3.00;;;1.70;;
15130;SDS011;7666;50.920;4.628;2022-12-20T00:22:46;2.53;;;1.97;;
15130;SDS011;7666;50.920;4.628;2022-12-20T00:25:32;2.20;;;1.80;;
15130;SDS011;7666;50.920;4.628;2022-12-20T00:28:18;3.50;;;2.00;;
15130;SDS011;7666;50.920;4.628;2022-12-20T00:31:04;2.53;;;1.90;;
15130;SDS011;7666;50.920;4.628;2022-12-20T00:33:51;3.47;;;1.90;;
15130;SDS011;7666;50.920;4.628;2022-12-20T00:36:39;3.30;;;2.17;;
15130;SDS011;7666;50.920;4.628;2022-12-20T00:39:25;2.93;;;1.80;;
15130;SDS011;7666;50.920;4.628;2022-12-20T00:42:11;4.03;;;2.07;;
15130;SDS011;7666;50.920;4.628;2022-12-20T00:44:57;8.53;;;2.03;;
15130;SDS011;7666;50.920;4.628;2022-12-20T00:47:43;4.63;;;1.97;;
15130;SDS011;7666;50.920;4.628;2022-12-20T00:50:29;3.83;;;2.13;;
15130;SDS011;7666;50.920;4.628;2022-12-20T00:53:15;3.53;;;2.20;;
15130;SDS011;7666;50.920;4.628;2022-12-20T00:56:01;3.73;;;2.17;;
15130;SDS011;7666;50.920;4.628;2022-12-20T00:58:47;2.57;;;2.00;;
15130;SDS011;7666;50.920;4.628;2022-12-20T01:01:33;3.57;;;2.30;;
15130;SDS011;7666;50.920;4.628;2022-12-20T01:04:19;5.13;;;2.10;;
15130;SDS011;7666;50.920;4.628;2022-12-20T01:07:05;3.97;;;2.10;;
15130;SDS011;7666;50.920;4.628;2022-12-20T01:09:51;3.70;;;2.60;;
15130;SDS011;7666;50.920;4.628;2022-12-20T01:12:37;2.83;;;2.10;;
15130;SDS011;7666;50.920;4.628;2022-12-20T01:15:23;3.57;;;2.07;;
15130;SDS011;7666;50.920;4.628;2022-12-20T01:18:09;3.70;;;2.20;;
15130;SDS011;7666;50.920;4.628;2022-12-20T01:21:02;3.03;;;2.10;;
15130;SDS011;7666;50.920;4.628;2022-12-20T01:23:50;3.83;;;2.30;;
15130;SDS011;7666;50.920;4.628;2022-12-20T01:26:37;2.67;;;1.80;;
15130;SDS011;7666;50.920;4.628;2022-12-20T01:29:23;3.43;;;2.20;;
15130;SDS011;7666;50.920;4.628;2022-12-20T01:32:09;4.23;;;2.20;;
15130;SDS011;7666;50.920;4.628;2022-12-20T01:34:55;3.03;;;2.20;;
15130;SDS011;7666;50.920;4.628;2022-12-20T01:37:41;3.90;;;2.17;;
15130;SDS011;7666;50.920;4.628;2022-12-20T01:40:26;3.13;;;2.10;;
15130;SDS011;7666;50.920;4.628;2022-12-20T01:43:13;2.40;;;1.97;;
15130;SDS011;7666;50.920;4.628;2022-12-20T01:46:00;4.47;;;2.13;;
15130;SDS011;7666;50.920;4.628;2022-12-20T01:48:48;3.30;;;1.90;;
15130;SDS011;7666;50.920;4.628;2022-12-20T01:51:39;2.30;;;2.10;;
15130;SDS011;7666;50.920;4.628;2022-12-20T01:57:24;2.60;;;1.90;;
15130;SDS011;7666;50.920;4.628;2022-12-20T02:00:17;3.23;;;2.30;;
15130;SDS011;7666;50.920;4.628;2022-12-20T02:03:04;2.70;;;2.20;;
15130;SDS011;7666;50.920;4.628;2022-12-20T02:05:53;3.20;;;2.20;;
15130;SDS011;7666;50.920;4.628;2022-12-20T02:08:39;4.03;;;2.10;;
15130;SDS011;7666;50.920;4.628;2022-12-20T02:11:29;2.70;;;2.03;;
15130;SDS011;7666;50.920;4.628;2022-12-20T02:33:02;5.50;;;2.27;;
15130;SDS011;7666;50.920;4.628;2022-12-20T02:35:51;2.73;;;1.77;;
15130;SDS011;7666;50.920;4.628;2022-12-20T02:38:37;2.23;;;2.00;;
15130;SDS011;7666;50.920;4.628;2022-12-20T02:41:31;2.30;;;2.00;;
15130;SDS011;7666;50.920;4.628;2022-12-20T02:44:21;4.03;;;2.10;;
15130;SDS011;7666;50.920;4.628;2022-12-20T02:47:30;3.47;;;1.83;;
15130;SDS011;7666;50.920;4.628;2022-12-20T02:50:26;3.37;;;1.63;;
15130;SDS011;7666;50.920;4.628;2022-12-20T02:53:20;2.57;;;2.00;;
15130;SDS011;7666;50.920;4.628;2022-12-20T02:56:15;5.03;;;2.23;;
15130;SDS011;7666;50.920;4.628;2022-12-20T02:59:20;3.30;;;2.00;;
15130;SDS011;7666;50.920;4.628;2022-12-20T03:02:09;3.23;;;2.07;;
15130;SDS011;7666;50.920;4.628;2022-12-20T03:04:56;3.73;;;2.33;;
15130;SDS011;7666;50.920;4.628;2022-12-20T03:07:43;2.83;;;1.70;;
15130;SDS011;7666;50.920;4.628;2022-12-20T03:10:29;2.77;;;1.80;;
15130;SDS011;7666;50.920;4.628;2022-12-20T03:13:15;5.40;;;2.20;;
15130;SDS011;7666;50.920;4.628;2022-12-20T03:16:02;3.17;;;2.20;;
15130;SDS011;7666;50.920;4.628;2022-12-20T03:18:48;3.63;;;2.10;;
15130;SDS011;7666;50.920;4.628;2022-12-20T03:21:34;5.70;;;2.20;;
15130;SDS011;7666;50.920;4.628;2022-12-20T03:24:20;3.37;;;1.80;;
15130;SDS011;7666;50.920;4.628;2022-12-20T03:27:06;4.27;;;2.10;;
15130;SDS011;7666;50.920;4.628;2022-12-20T03:29:53;3.77;;;2.20;;
15130;SDS011;7666;50.920;4.628;2022-12-20T03:32:39;2.67;;;1.87;;
15130;SDS011;7666;50.920;4.628;2022-12-20T03:35:25;2.37;;;1.77;;
15130;SDS011;7666;50.920;4.628;2022-12-20T03:38:11;3.10;;;1.70;;
15130;SDS011;7666;50.920;4.628;2022-12-20T03:40:57;5.47;;;1.90;;
15130;SDS011;7666;50.920;4.628;2022-12-20T03:43:43;5.93;;;2.13;;
15130;SDS011;7666;50.920;4.628;2022-12-20T03:46:29;3.80;;;1.97;;
15130;SDS011;7666;50.920;4.628;2022-12-20T03:49:15;4.30;;;1.80;;
15130;SDS011;7666;50.920;4.628;2022-12-20T03:52:01;4.27;;;2.10;;
15130;SDS011;7666;50.920;4.628;2022-12-20T03:54:47;4.23;;;1.83;;
15130;SDS011;7666;50.920;4.628;2022-12-20T03:57:33;4.50;;;2.00;;
15130;SDS011;7666;50.920;4.628;2022-12-20T04:00:19;2.90;;;1.87;;
15130;SDS011;7666;50.920;4.628;2022-12-20T04:03:05;2.40;;;2.00;;
15130;SDS011;7666;50.920;4.628;2022-12-20T04:05:51;3.77;;;2.40;;
15130;SDS011;7666;50.920;4.628;2022-12-20T04:08:37;4.03;;;2.10;;
15130;SDS011;7666;50.920;4.628;2022-12-20T04:11:23;3.80;;;2.37;;
15130;SDS011;7666;50.920;4.628;2022-12-20T04:14:09;4.83;;;2.43;;
15130;SDS011;7666;50.920;4.628;2022-12-20T04:16:55;2.97;;;1.97;;
15130;SDS011;7666;50.920;4.628;2022-12-20T04:19:41;3.07;;;1.97;;
15130;SDS011;7666;50.920;4.628;2022-12-20T04:22:27;2.53;;;1.90;;
15130;SDS011;7666;50.920;4.628;2022-12-20T04:25:14;6.83;;;2.57;;
15130;SDS011;7666;50.920;4.628;2022-12-20T04:28:01;4.10;;;2.10;;
15130;SDS011;7666;50.920;4.628;2022-12-20T04:30:47;3.03;;;2.30;;
15130;SDS011;7666;50.920;4.628;2022-12-20T04:33:33;3.33;;;2.00;;
15130;SDS011;7666;50.920;4.628;2022-12-20T04:36:19;2.97;;;2.17;;
15130;SDS011;7666;50.920;4.628;2022-12-20T04:39:06;2.57;;;2.03;;
15130;SDS011;7666;50.920;4.628;2022-12-20T04:41:52;2.20;;;2.00;;
15130;SDS011;7666;50.920;4.628;2022-12-20T04:44:38;4.23;;;2.13;;
15130;SDS011;7666;50.920;4.628;2022-12-20T04:47:24;3.43;;;2.00;;
15130;SDS011;7666;50.920;4.628;2022-12-20T04:50:10;2.97;;;1.93;;
15130;SDS011;7666;50.920;4.628;2022-12-20T04:52:56;3.00;;;2.00;;
15130;SDS011;7666;50.920;4.628;2022-12-20T04:56:00;4.57;;;1.90;;
15130;SDS011;7666;50.920;4.628;2022-12-20T04:58:47;6.70;;;1.93;;
15130;SDS011;7666;50.920;4.628;2022-12-20T05:01:35;3.20;;;2.00;;
15130;SDS011;7666;50.920;4.628;2022-12-20T05:04:21;5.17;;;2.43;;
15130;SDS011;7666;50.920;4.628;2022-12-20T05:07:07;3.07;;;1.70;;
15130;SDS011;7666;50.920;4.628;2022-12-20T05:09:53;2.93;;;1.93;;
15130;SDS011;7666;50.920;4.628;2022-12-20T05:12:39;4.27;;;2.00;;
15130;SDS011;7666;50.920;4.628;2022-12-20T05:15:25;3.60;;;1.70;;
15130;SDS011;7666;50.920;4.628;2022-12-20T05:18:11;2.93;;;1.70;;
15130;SDS011;7666;50.920;4.628;2022-12-20T05:20:57;3.43;;;1.60;;
15130;SDS011;7666;50.920;4.628;2022-12-20T05:24:02;3.50;;;1.47;;
15130;SDS011;7666;50.920;4.628;2022-12-20T05:27:07;2.93;;;1.73;;
15130;SDS011;7666;50.920;4.628;2022-12-20T05:29:53;3.13;;;1.40;;
15130;SDS011;7666;50.920;4.628;2022-12-20T05:32:39;2.20;;;1.40;;
15130;SDS011;7666;50.920;4.628;2022-12-20T05:35:25;3.03;;;1.53;;
15130;SDS011;7666;50.920;4.628;2022-12-20T05:38:11;2.10;;;1.57;;
15130;SDS011;7666;50.920;4.628;2022-12-20T05:40:57;3.10;;;1.40;;
15130;SDS011;7666;50.920;4.628;2022-12-20T05:43:43;1.40;;;1.30;;
15130;SDS011;7666;50.920;4.628;2022-12-20T05:46:29;2.93;;;1.67;;
15130;SDS011;7666;50.920;4.628;2022-12-20T05:49:15;2.07;;;1.30;;
15130;SDS011;7666;50.920;4.628;2022-12-20T05:52:02;2.53;;;1.40;;
15130;SDS011;7666;50.920;4.628;2022-12-20T05:54:48;5.57;;;1.80;;
15130;SDS011;7666;50.920;4.628;2022-12-20T05:57:34;2.03;;;1.30;;
15130;SDS011;7666;50.920;4.628;2022-12-20T06:00:20;3.33;;;1.50;;
15130;SDS011;7666;50.920;4.628;2022-12-20T06:03:06;2.70;;;1.47;;
15130;SDS011;7666;50.920;4.628;2022-12-20T06:05:54;2.13;;;1.30;;
15130;SDS011;7666;50.920;4.628;2022-12-20T06:08:40;3.67;;;1.40;;
15130;SDS011;7666;50.920;4.628;2022-12-20T06:11:26;2.97;;;1.50;;
15130;SDS011;7666;50.920;4.628;2022-12-20T06:14:12;2.73;;;1.47;;
15130;SDS011;7666;50.920;4.628;2022-12-20T06:16:57;3.30;;;1.23;;
15130;SDS011;7666;50.920;4.628;2022-12-20T06:19:43;2.70;;;1.47;;
15130;SDS011;7666;50.920;4.628;2022-12-20T06:22:29;3.97;;;1.50;;
15130;SDS011;7666;50.920;4.628;2022-12-20T06:25:15;3.07;;;1.33;;
15130;SDS011;7666;50.920;4.628;2022-12-20T06:28:01;4.13;;;1.50;;
15130;SDS011;7666;50.920;4.628;2022-12-20T06:30:54;2.70;;;1.33;;
15130;SDS011;7666;50.920;4.628;2022-12-20T06:33:41;2.53;;;1.60;;
15130;SDS011;7666;50.920;4.628;2022-12-20T06:36:27;3.40;;;1.40;;
15130;SDS011;7666;50.920;4.628;2022-12-20T06:39:13;3.73;;;1.43;;
15130;SDS011;7666;50.920;4.628;2022-12-20T06:41:59;2.17;;;1.50;;
15130;SDS011;7666;50.920;4.628;2022-12-20T06:44:45;2.40;;;1.30;;
15130;SDS011;7666;50.920;4.628;2022-12-20T06:47:31;3.33;;;1.40;;
15130;SDS011;7666;50.920;4.628;2022-12-20T06:50:17;2.60;;;1.43;;
15130;SDS011;7666;50.920;4.628;2022-12-20T06:53:03;3.03;;;1.20;;
15130;SDS011;7666;50.920;4.628;2022-12-20T06:55:50;1.77;;;1.27;;
15130;SDS011;7666;50.920;4.628;2022-12-20T06:58:36;3.97;;;1.50;;
15130;SDS011;7666;50.920;4.628;2022-12-20T07:01:22;5.27;;;1.50;;
15130;SDS011;7666;50.920;4.628;2022-12-20T07:04:08;3.50;;;1.40;;
15130;SDS011;7666;50.920;4.628;2022-12-20T07:06:53;3.93;;;1.57;;
15130;SDS011;7666;50.920;4.628;2022-12-20T07:09:41;4.80;;;1.40;;
15130;SDS011;7666;50.920;4.628;2022-12-20T07:12:27;1.80;;;1.30;;
15130;SDS011;7666;50.920;4.628;2022-12-20T07:15:13;2.03;;;1.30;;
15130;SDS011;7666;50.920;4.628;2022-12-20T07:18:00;2.63;;;1.20;;
15130;SDS011;7666;50.920;4.628;2022-12-20T07:20:46;3.53;;;1.70;;
15130;SDS011;7666;50.920;4.628;2022-12-20T07:23:32;1.77;;;1.03;;
15130;SDS011;7666;50.920;4.628;2022-12-20T07:26:18;3.23;;;1.40;;
15130;SDS011;7666;50.920;4.628;2022-12-20T07:29:04;3.53;;;1.50;;
15130;SDS011;7666;50.920;4.628;2022-12-20T07:31:50;3.23;;;1.53;;
15130;SDS011;7666;50.920;4.628;2022-12-20T07:34:37;3.53;;;1.60;;
15130;SDS011;7666;50.920;4.628;2022-12-20T07:37:23;3.27;;;1.50;;
15130;SDS011;7666;50.920;4.628;2022-12-20T07:40:09;2.57;;;1.30;;
15130;SDS011;7666;50.920;4.628;2022-12-20T07:42:55;4.27;;;1.70;;
15130;SDS011;7666;50.920;4.628;2022-12-20T07:45:41;3.30;;;1.70;;
15130;SDS011;7666;50.920;4.628;2022-12-20T07:48:27;1.80;;;1.70;;
15130;SDS011;7666;50.920;4.628;2022-12-20T07:51:20;4.87;;;1.83;;
15130;SDS011;7666;50.920;4.628;2022-12-20T07:54:19;5.73;;;1.57;;
15130;SDS011;7666;50.920;4.628;2022-12-20T07:57:10;2.07;;;1.30;;
15130;SDS011;7666;50.920;4.628;2022-12-20T08:00:07;4.93;;;1.93;;
15130;SDS011;7666;50.920;4.628;2022-12-20T08:02:55;3.03;;;1.77;;
15130;SDS011;7666;50.920;4.628;2022-12-20T08:05:50;3.60;;;2.03;;
15130;SDS011;7666;50.920;4.628;2022-12-20T08:08:40;3.53;;;1.70;;
15130;SDS011;7666;50.920;4.628;2022-12-20T08:11:31;3.80;;;1.80;;
15130;SDS011;7666;50.920;4.628;2022-12-20T08:14:19;2.87;;;1.50;;
15130;SDS011;7666;50.920;4.628;2022-12-20T08:17:06;1.90;;;1.50;;
15130;SDS011;7666;50.920;4.628;2022-12-20T08:19:52;3.83;;;1.73;;
15130;SDS011;7666;50.920;4.628;2022-12-20T08:22:38;2.63;;;1.57;;
15130;SDS011;7666;50.920;4.628;2022-12-20T08:25:23;3.20;;;1.90;;
15130;SDS011;7666;50.920;4.628;2022-12-20T08:28:09;2.67;;;1.57;;
15130;SDS011;7666;50.920;4.628;2022-12-20T08:31:02;3.10;;;1.63;;
15130;SDS011;7666;50.920;4.628;2022-12-20T08:33:49;3.60;;;1.70;;
15130;SDS011;7666;50.920;4.628;2022-12-20T08:36:38;5.43;;;1.90;;
15130;SDS011;7666;50.920;4.628;2022-12-20T08:39:24;2.43;;;1.57;;
15130;SDS011;7666;50.920;4.628;2022-12-20T08:42:11;4.67;;;1.70;;
15130;SDS011;7666;50.920;4.628;2022-12-20T08:44:57;4.13;;;1.63;;
15130;SDS011;7666;50.920;4.628;2022-12-20T08:47:43;4.23;;;2.00;;
15130;SDS011;7666;50.920;4.628;2022-12-20T08:50:29;2.90;;;1.60;;
15130;SDS011;7666;50.920;4.628;2022-12-20T08:53:15;4.17;;;1.93;;
15130;SDS011;7666;50.920;4.628;2022-12-20T08:59:00;2.23;;;1.50;;
15130;SDS011;7666;50.920;4.628;2022-12-20T09:01:46;5.67;;;2.17;;
15130;SDS011;7666;50.920;4.628;2022-12-20T09:04:32;3.63;;;1.53;;
15130;SDS011;7666;50.920;4.628;2022-12-20T09:07:18;3.20;;;1.63;;
15130;SDS011;7666;50.920;4.628;2022-12-20T09:10:05;3.03;;;1.70;;
15130;SDS011;7666;50.920;4.628;2022-12-20T09:12:51;5.20;;;1.70;;
15130;SDS011;7666;50.920;4.628;2022-12-20T09:15:37;2.43;;;1.60;;
15130;SDS011;7666;50.920;4.628;2022-12-20T09:18:23;2.40;;;1.83;;
15130;SDS011;7666;50.920;4.628;2022-12-20T09:21:10;6.40;;;2.53;;
15130;SDS011;7666;50.920;4.628;2022-12-20T09:23:56;3.90;;;1.90;;
15130;SDS011;7666;50.920;4.628;2022-12-20T09:26:43;3.93;;;1.73;;
15130;SDS011;7666;50.920;4.628;2022-12-20T09:29:29;3.83;;;1.90;;
15130;SDS011;7666;50.920;4.628;2022-12-20T09:32:15;4.63;;;2.20;;
15130;SDS011;7666;50.920;4.628;2022-12-20T09:35:00;3.70;;;1.97;;
15130;SDS011;7666;50.920;4.628;2022-12-20T09:37:47;3.97;;;2.03;;
15130;SDS011;7666;50.920;4.628;2022-12-20T09:40:33;4.97;;;2.00;;
15130;SDS011;7666;50.920;4.628;2022-12-20T09:43:21;3.93;;;1.57;;
15130;SDS011;7666;50.920;4.628;2022-12-20T09:46:09;13.97;;;4.27;;
15130;SDS011;7666;50.920;4.628;2022-12-20T09:48:59;4.40;;;1.90;;
15130;SDS011;7666;50.920;4.628;2022-12-20T09:51:51;4.33;;;2.10;;
15130;SDS011;7666;50.920;4.628;2022-12-20T09:55:43;3.47;;;2.00;;
15130;SDS011;7666;50.920;4.628;2022-12-20T10:01:16;3.23;;;2.07;;
15130;SDS011;7666;50.920;4.628;2022-12-20T10:04:16;5.43;;;2.27;;
15130;SDS011;7666;50.920;4.628;2022-12-20T10:10:50;6.43;;;2.03;;
15130;SDS011;7666;50.920;4.628;2022-12-20T10:13:55;4.53;;;2.20;;
15130;SDS011;7666;50.920;4.628;2022-12-20T10:17:04;4.27;;;1.97;;
15130;SDS011;7666;50.920;4.628;2022-12-20T10:25:49;3.00;;;1.90;;
15130;SDS011;7666;50.920;4.628;2022-12-20T10:28:37;3.83;;;1.90;;
15130;SDS011;7666;50.920;4.628;2022-12-20T10:31:25;2.83;;;1.93;;
15130;SDS011;7666;50.920;4.628;2022-12-20T10:34:12;6.87;;;2.03;;
15130;SDS011;7666;50.920;4.628;2022-12-20T10:37:13;3.90;;;2.10;;
15130;SDS011;7666;50.920;4.628;2022-12-20T10:40:00;5.63;;;2.20;;
15130;SDS011;7666;50.920;4.628;2022-12-20T10:42:46;2.23;;;1.97;;
15130;SDS011;7666;50.920;4.628;2022-12-20T10:45:37;4.67;;;2.20;;
15130;SDS011;7666;50.920;4.628;2022-12-20T10:48:34;4.33;;;2.10;;
15130;SDS011;7666;50.920;4.628;2022-12-20T10:51:20;3.83;;;1.90;;
15130;SDS011;7666;50.920;4.628;2022-12-20T10:54:10;5.77;;;2.10;;
15130;SDS011;7666;50.920;4.628;2022-12-20T11:00:05;5.67;;;2.50;;
15130;SDS011;7666;50.920;4.628;2022-12-20T11:06:11;4.03;;;2.10;;
15130;SDS011;7666;50.920;4.628;2022-12-20T11:12:15;3.67;;;2.30;;
15130;SDS011;7666;50.920;4.628;2022-12-20T11:15:08;4.30;;;2.37;;
15130;SDS011;7666;50.920;4.628;2022-12-20T11:18:14;4.40;;;2.30;;
15130;SDS011;7666;50.920;4.628;2022-12-20T11:21:21;3.90;;;2.27;;
15130;SDS011;7666;50.920;4.628;2022-12-20T11:24:12;6.00;;;2.50;;
15130;SDS011;7666;50.920;4.628;2022-12-20T11:56:23;3.87;;;2.27;;
15130;SDS011;7666;50.920;4.628;2022-12-20T12:05:24;4.93;;;2.43;;
15130;SDS011;7666;50.920;4.628;2022-12-20T12:08:47;4.87;;;2.73;;
15130;SDS011;7666;50.920;4.628;2022-12-20T12:11:34;4.77;;;2.50;;
15130;SDS011;7666;50.920;4.628;2022-12-20T12:14:32;4.37;;;2.50;;
15130;SDS011;7666;50.920;4.628;2022-12-20T12:17:36;4.53;;;2.60;;
15130;SDS011;7666;50.920;4.628;2022-12-20T12:20:35;5.47;;;2.73;;
15130;SDS011;7666;50.920;4.628;2022-12-20T12:23:53;5.07;;;2.80;;
15130;SDS011;7666;50.920;4.628;2022-12-20T12:26:43;4.33;;;2.67;;
15130;SDS011;7666;50.920;4.628;2022-12-20T12:29:31;5.20;;;2.53;;
15130;SDS011;7666;50.920;4.628;2022-12-20T12:32:26;4.47;;;2.40;;
15130;SDS011;7666;50.920;4.628;2022-12-20T12:39:17;4.70;;;2.33;;
15130;SDS011;7666;50.920;4.628;2022-12-20T12:51:14;5.33;;;2.90;;
15130;SDS011;7666;50.920;4.628;2022-12-20T12:54:25;4.93;;;2.37;;
15130;SDS011;7666;50.920;4.628;2022-12-20T12:57:16;6.33;;;2.67;;
15130;SDS011;7666;50.920;4.628;2022-12-20T13:00:03;4.83;;;2.40;;
15130;SDS011;7666;50.920;4.628;2022-12-20T13:30:24;8.20;;;2.90;;
15130;SDS011;7666;50.920;4.628;2022-12-20T13:38:55;5.40;;;3.10;;
15130;SDS011;7666;50.920;4.628;2022-12-20T13:41:45;6.13;;;3.03;;
15130;SDS011;7666;50.920;4.628;2022-12-20T13:44:38;5.87;;;2.97;;
15130;SDS011;7666;50.920;4.628;2022-12-20T13:47:28;5.73;;;2.90;;
15130;SDS011;7666;50.920;4.628;2022-12-20T13:50:30;4.70;;;3.23;;
15130;SDS011;7666;50.920;4.628;2022-12-20T13:53:25;7.07;;;3.10;;
15130;SDS011;7666;50.920;4.628;2022-12-20T13:59:14;6.33;;;2.87;;
15130;SDS011;7666;50.920;4.628;2022-12-20T14:02:13;3.97;;;3.13;;
15130;SDS011;7666;50.920;4.628;2022-12-20T14:05:18;6.37;;;3.43;;
15130;SDS011;7666;50.920;4.628;2022-12-20T14:08:14;3.50;;;3.10;;
15130;SDS011;7666;50.920;4.628;2022-12-20T14:11:10;6.20;;;3.63;;
15130;SDS011;7666;50.920;4.628;2022-12-20T14:14:02;4.93;;;3.20;;
15130;SDS011;7666;50.920;4.628;2022-12-20T14:16:48;7.73;;;3.27;;
15130;SDS011;7666;50.920;4.628;2022-12-20T14:19:34;7.60;;;3.20;;
15130;SDS011;7666;50.920;4.628;2022-12-20T14:22:20;4.37;;;2.90;;
15130;SDS011;7666;50.920;4.628;2022-12-20T14:25:07;3.97;;;3.30;;
15130;SDS011;7666;50.920;4.628;2022-12-20T14:27:54;4.70;;;2.90;;
15130;SDS011;7666;50.920;4.628;2022-12-20T14:30:41;7.13;;;3.13;;
15130;SDS011;7666;50.920;4.628;2022-12-20T14:36:25;4.60;;;3.17;;
15130;SDS011;7666;50.920;4.628;2022-12-20T14:39:25;5.43;;;3.60;;
15130;SDS011;7666;50.920;4.628;2022-12-20T14:42:13;5.63;;;2.80;;
15130;SDS011;7666;50.920;4.628;2022-12-20T14:48:05;4.73;;;3.57;;
15130;SDS011;7666;50.920;4.628;2022-12-20T14:51:03;5.70;;;3.30;;
15130;SDS011;7666;50.920;4.628;2022-12-20T14:53:49;6.77;;;3.97;;
15130;SDS011;7666;50.920;4.628;2022-12-20T14:56:36;6.50;;;4.03;;
15130;SDS011;7666;50.920;4.628;2022-12-20T14:59:26;6.57;;;3.97;;
15130;SDS011;7666;50.920;4.628;2022-12-20T15:02:33;5.77;;;4.53;;
15130;SDS011;7666;50.920;4.628;2022-12-20T15:05:49;8.07;;;3.70;;
15130;SDS011;7666;50.920;4.628;2022-12-20T15:08:37;6.60;;;4.27;;
15130;SDS011;7666;50.920;4.628;2022-12-20T15:11:24;5.90;;;3.60;;
15130;SDS011;7666;50.920;4.628;2022-12-20T15:17:13;5.27;;;3.43;;
15130;SDS011;7666;50.920;4.628;2022-12-20T15:20:00;4.20;;;3.60;;
15130;SDS011;7666;50.920;4.628;2022-12-20T15:22:46;4.80;;;3.30;;
15130;SDS011;7666;50.920;4.628;2022-12-20T15:25:32;7.93;;;3.83;;
15130;SDS011;7666;50.920;4.628;2022-12-20T15:28:22;7.77;;;4.03;;
15130;SDS011;7666;50.920;4.628;2022-12-20T15:31:10;5.87;;;3.80;;
15130;SDS011;7666;50.920;4.628;2022-12-20T15:33:58;4.90;;;3.70;;
15130;SDS011;7666;50.920;4.628;2022-12-20T15:36:46;4.30;;;3.60;;
15130;SDS011;7666;50.920;4.628;2022-12-20T15:39:32;6.10;;;3.80;;
15130;SDS011;7666;50.920;4.628;2022-12-20T15:42:18;5.67;;;3.90;;
15130;SDS011;7666;50.920;4.628;2022-12-20T15:45:11;5.67;;;3.67;;
15130;SDS011;7666;50.920;4.628;2022-12-20T15:47:58;7.00;;;3.70;;
15130;SDS011;7666;50.920;4.628;2022-12-20T15:50:54;5.77;;;3.80;;
15130;SDS011;7666;50.920;4.628;2022-12-20T15:53:42;5.03;;;3.83;;
15130;SDS011;7666;50.920;4.628;2022-12-20T15:56:28;4.80;;;3.87;;
15130;SDS011;7666;50.920;4.628;2022-12-20T15:59:14;7.43;;;4.23;;
15130;SDS011;7666;50.920;4.628;2022-12-20T16:02:01;8.30;;;3.87;;
15130;SDS011;7666;50.920;4.628;2022-12-20T16:04:47;6.50;;;4.13;;
15130;SDS011;7666;50.920;4.628;2022-12-20T16:07:33;7.70;;;4.00;;
15130;SDS011;7666;50.920;4.628;2022-12-20T16:10:19;6.87;;;3.97;;
15130;SDS011;7666;50.920;4.628;2022-12-20T16:13:05;6.17;;;4.30;;
15130;SDS011;7666;50.920;4.628;2022-12-20T16:15:52;5.83;;;4.07;;
15130;SDS011;7666;50.920;4.628;2022-12-20T16:18:38;7.47;;;4.30;;
15130;SDS011;7666;50.920;4.628;2022-12-20T16:21:25;10.23;;;6.33;;
15130;SDS011;7666;50.920;4.628;2022-12-20T16:24:17;6.37;;;4.53;;
15130;SDS011;7666;50.920;4.628;2022-12-20T16:27:04;4.57;;;4.10;;
15130;SDS011;7666;50.920;4.628;2022-12-20T16:29:50;7.67;;;5.23;;
15130;SDS011;7666;50.920;4.628;2022-12-20T16:32:36;6.60;;;4.43;;
15130;SDS011;7666;50.920;4.628;2022-12-20T16:35:23;6.10;;;4.27;;
15130;SDS011;7666;50.920;4.628;2022-12-20T16:38:14;5.67;;;4.20;;
15130;SDS011;7666;50.920;4.628;2022-12-20T16:41:05;5.90;;;4.93;;
15130;SDS011;7666;50.920;4.628;2022-12-20T16:43:59;6.60;;;4.87;;
15130;SDS011;7666;50.920;4.628;2022-12-20T16:46:46;7.47;;;4.80;;
15130;SDS011;7666;50.920;4.628;2022-12-20T16:49:32;5.87;;;4.60;;
15130;SDS011;7666;50.920;4.628;2022-12-20T16:52:18;5.97;;;4.90;;
15130;SDS011;7666;50.920;4.628;2022-12-20T16:55:05;5.97;;;5.17;;
15130;SDS011;7666;50.920;4.628;2022-12-20T16:57:52;6.90;;;5.27;;
15130;SDS011;7666;50.920;4.628;2022-12-20T17:00:38;9.90;;;5.33;;
15130;SDS011;7666;50.920;4.628;2022-12-20T17:03:24;7.77;;;5.23;;
15130;SDS011;7666;50.920;4.628;2022-12-20T17:06:11;5.37;;;4.77;;
15130;SDS011;7666;50.920;4.628;2022-12-20T17:08:58;5.43;;;4.83;;
15130;SDS011;7666;50.920;4.628;2022-12-20T17:11:45;5.43;;;4.77;;
15130;SDS011;7666;50.920;4.628;2022-12-20T17:14:34;5.30;;;4.60;;
15130;SDS011;7666;50.920;4.628;2022-12-20T17:17:20;6.77;;;5.00;;
15130;SDS011;7666;50.920;4.628;2022-12-20T17:20:06;8.27;;;5.00;;
15130;SDS011;7666;50.920;4.628;2022-12-20T17:22:53;5.87;;;5.13;;
15130;SDS011;7666;50.920;4.628;2022-12-20T17:25:40;8.33;;;5.20;;
15130;SDS011;7666;50.920;4.628;2022-12-20T17:28:26;5.97;;;5.40;;
15130;SDS011;7666;50.920;4.628;2022-12-20T17:31:23;7.50;;;5.37;;
15130;SDS011;7666;50.920;4.628;2022-12-20T17:34:20;6.47;;;5.30;;
15130;SDS011;7666;50.920;4.628;2022-12-20T17:37:08;5.73;;;5.00;;
15130;SDS011;7666;50.920;4.628;2022-12-20T17:39:54;5.90;;;5.40;;
15130;SDS011;7666;50.920;4.628;2022-12-20T17:42:41;7.57;;;5.57;;
15130;SDS011;7666;50.920;4.628;2022-12-20T17:45:31;6.73;;;5.23;;
15130;SDS011;7666;50.920;4.628;2022-12-20T17:48:19;7.97;;;5.73;;
15130;SDS011;7666;50.920;4.628;2022-12-20T17:51:15;8.17;;;5.80;;
15130;SDS011;7666;50.920;4.628;2022-12-20T17:54:03;7.63;;;5.90;;
15130;SDS011;7666;50.920;4.628;2022-12-20T17:56:50;6.27;;;5.47;;
15130;SDS011;7666;50.920;4.628;2022-12-20T17:59:37;7.03;;;5.70;;
15130;SDS011;7666;50.920;4.628;2022-12-20T18:02:23;8.37;;;6.10;;
15130;SDS011;7666;50.920;4.628;2022-12-20T18:05:10;6.63;;;5.53;;
15130;SDS011;7666;50.920;4.628;2022-12-20T18:07:57;6.63;;;5.33;;
15130;SDS011;7666;50.920;4.628;2022-12-20T18:10:43;6.07;;;5.47;;
15130;SDS011;7666;50.920;4.628;2022-12-20T18:13:30;7.17;;;5.90;;
15130;SDS011;7666;50.920;4.628;2022-12-20T18:16:18;6.53;;;5.60;;
15130;SDS011;7666;50.920;4.628;2022-12-20T18:19:15;6.10;;;5.50;;
15130;SDS011;7666;50.920;4.628;2022-12-20T18:22:02;8.23;;;6.23;;
15130;SDS011;7666;50.920;4.628;2022-12-20T18:24:49;9.73;;;5.77;;
15130;SDS011;7666;50.920;4.628;2022-12-20T18:27:36;6.77;;;6.07;;
15130;SDS011;7666;50.920;4.628;2022-12-20T18:30:23;7.60;;;6.00;;
15130;SDS011;7666;50.920;4.628;2022-12-20T18:33:09;6.43;;;5.83;;
15130;SDS011;7666;50.920;4.628;2022-12-20T18:36:03;6.67;;;5.70;;
15130;SDS011;7666;50.920;4.628;2022-12-20T18:38:54;6.00;;;5.40;;
15130;SDS011;7666;50.920;4.628;2022-12-20T18:41:42;7.33;;;6.23;;
15130;SDS011;7666;50.920;4.628;2022-12-20T18:44:28;7.10;;;5.50;;
15130;SDS011;7666;50.920;4.628;2022-12-20T18:47:19;6.67;;;6.07;;
15130;SDS011;7666;50.920;4.628;2022-12-20T18:50:05;6.60;;;6.00;;
15130;SDS011;7666;50.920;4.628;2022-12-20T18:52:52;7.03;;;6.33;;
15130;SDS011;7666;50.920;4.628;2022-12-20T18:55:38;6.77;;;6.10;;
15130;SDS011;7666;50.920;4.628;2022-12-20T18:58:24;6.03;;;5.43;;
15130;SDS011;7666;50.920;4.628;2022-12-20T19:01:14;6.63;;;6.00;;
15130;SDS011;7666;50.920;4.628;2022-12-20T19:04:08;6.93;;;5.43;;
15130;SDS011;7666;50.920;4.628;2022-12-20T19:06:54;6.87;;;6.00;;
15130;SDS011;7666;50.920;4.628;2022-12-20T19:09:40;6.20;;;5.60;;
15130;SDS011;7666;50.920;4.628;2022-12-20T19:12:26;6.53;;;5.93;;
15130;SDS011;7666;50.920;4.628;2022-12-20T19:15:12;6.10;;;5.50;;
15130;SDS011;7666;50.920;4.628;2022-12-20T19:17:59;6.40;;;5.73;;
15130;SDS011;7666;50.920;4.628;2022-12-20T19:20:45;6.63;;;5.93;;
15130;SDS011;7666;50.920;4.628;2022-12-20T19:23:31;7.67;;;6.03;;
15130;SDS011;7666;50.920;4.628;2022-12-20T19:26:18;6.00;;;5.50;;
15130;SDS011;7666;50.920;4.628;2022-12-20T19:29:05;7.80;;;5.70;;
15130;SDS011;7666;50.920;4.628;2022-12-20T19:31:51;6.07;;;5.47;;